createdAt,value
2023-05-25T00:01:01.139Z,8.16
2023-05-25T00:01:50.018Z,8.15
2023-05-25T00:02:49.128Z,8.11
2023-05-25T00:03:49.033Z,8.10
2023-05-25T00:04:48.907Z,8.11
2023-05-25T00:05:48.889Z,8.08
2023-05-25T00:06:48.884Z,8.08
2023-05-25T00:07:48.856Z,8.05
2023-05-25T00:08:48.857Z,8.02
2023-05-25T00:09:48.861Z,7.95
2023-05-25T00:10:48.853Z,7.95
2023-05-25T00:11:48.816Z,7.93
2023-05-25T00:12:48.865Z,7.92
2023-05-25T00:13:48.795Z,7.92
2023-05-25T00:14:48.804Z,7.87
2023-05-25T00:15:48.771Z,7.85
2023-05-25T00:16:48.816Z,7.85
2023-05-25T00:17:48.842Z,7.82
2023-05-25T00:18:48.799Z,7.79
2023-05-25T00:19:48.760Z,7.80
2023-05-25T00:20:48.730Z,7.77
2023-05-25T00:21:48.924Z,7.75
2023-05-25T00:22:48.697Z,7.74
2023-05-25T00:23:48.710Z,7.71
2023-05-25T00:24:48.683Z,7.74
2023-05-25T00:25:48.676Z,7.77
2023-05-25T00:26:48.653Z,7.75
2023-05-25T00:27:48.649Z,7.72
2023-05-25T00:28:48.656Z,7.74
2023-05-25T00:29:48.632Z,7.74
2023-05-25T00:30:48.668Z,7.69
2023-05-25T00:31:48.599Z,7.63
2023-05-25T00:32:48.625Z,7.61
2023-05-25T00:33:48.586Z,7.61
2023-05-25T00:34:48.582Z,7.60
2023-05-25T00:35:48.563Z,7.61
2023-05-25T00:36:48.546Z,7.60
2023-05-25T00:37:48.550Z,7.64
2023-05-25T00:38:48.524Z,7.64
2023-05-25T00:39:48.508Z,7.63
2023-05-25T00:40:48.495Z,7.60
2023-05-25T00:41:48.513Z,7.55
2023-05-25T00:42:48.509Z,7.57
2023-05-25T00:43:48.475Z,7.60
2023-05-25T00:44:48.456Z,7.60
2023-05-25T00:45:48.493Z,7.60
2023-05-25T00:46:48.527Z,7.64
2023-05-25T00:47:48.483Z,7.67
2023-05-25T00:48:48.406Z,7.64
2023-05-25T00:49:48.406Z,7.64
2023-05-25T00:50:48.409Z,7.61
2023-05-25T00:51:48.389Z,7.68
2023-05-25T00:52:48.392Z,7.68
2023-05-25T00:53:48.364Z,7.67
2023-05-25T00:54:48.378Z,7.63
2023-05-25T00:55:48.357Z,7.61
2023-05-25T00:56:48.332Z,7.60
2023-05-25T00:57:48.315Z,7.57
2023-05-25T00:58:48.302Z,7.55
2023-05-25T00:59:48.331Z,7.53
2023-05-25T01:00:48.294Z,7.50
2023-05-25T01:01:48.347Z,7.48
2023-05-25T01:02:48.417Z,7.43
2023-05-25T01:03:48.292Z,7.43
2023-05-25T01:04:48.241Z,7.45
2023-05-25T01:05:48.251Z,7.43
2023-05-25T01:06:48.244Z,7.43
2023-05-25T01:07:48.207Z,7.45
2023-05-25T01:08:48.196Z,7.46
2023-05-25T01:09:48.180Z,7.48
2023-05-25T01:10:48.180Z,7.43
2023-05-25T01:11:48.161Z,7.40
2023-05-25T01:12:48.151Z,7.42
2023-05-25T01:13:48.139Z,7.46
2023-05-25T01:14:48.144Z,7.48
2023-05-25T01:15:48.131Z,7.49
2023-05-25T01:16:48.148Z,7.49
2023-05-25T01:17:48.131Z,7.49
2023-05-25T01:18:48.099Z,7.46
2023-05-25T01:20:01.669Z,7.48
2023-05-25T01:20:49.076Z,7.49
2023-05-25T01:21:48.057Z,7.50
2023-05-25T01:22:48.040Z,7.48
2023-05-25T01:23:48.029Z,7.50
2023-05-25T01:24:48.019Z,7.52
2023-05-25T01:25:48.008Z,7.53
2023-05-25T01:26:47.992Z,7.50
2023-05-25T01:27:48.041Z,7.57
2023-05-25T01:28:48.035Z,7.63
2023-05-25T01:29:47.998Z,7.61
2023-05-25T01:30:47.947Z,7.60
2023-05-25T01:31:48.008Z,7.57
2023-05-25T01:32:47.933Z,7.53
2023-05-25T01:33:47.929Z,7.52
2023-05-25T01:34:47.906Z,7.50
2023-05-25T01:35:47.910Z,7.46
2023-05-25T01:36:47.878Z,7.43
2023-05-25T01:37:47.920Z,7.39
2023-05-25T01:38:47.876Z,7.35
2023-05-25T01:39:47.857Z,7.34
2023-05-25T01:40:47.840Z,7.32
2023-05-25T01:41:47.845Z,7.32
2023-05-25T01:42:47.833Z,7.28
2023-05-25T01:43:47.820Z,7.30
2023-05-25T01:44:47.792Z,7.28
2023-05-25T01:45:47.828Z,7.27
2023-05-25T01:46:47.777Z,7.28
2023-05-25T01:47:47.807Z,7.25
2023-05-25T01:48:47.750Z,7.24
2023-05-25T01:49:47.757Z,7.28
2023-05-25T01:50:47.726Z,7.25
2023-05-25T01:51:47.762Z,7.24
2023-05-25T01:52:47.716Z,7.21
2023-05-25T01:53:47.696Z,7.21
2023-05-25T01:54:47.678Z,7.21
2023-05-25T01:55:47.675Z,7.21
2023-05-25T01:56:47.672Z,7.20
2023-05-25T01:57:47.650Z,7.17
2023-05-25T01:58:47.652Z,7.13
2023-05-25T01:59:47.636Z,7.12
2023-05-25T02:00:47.612Z,7.12
2023-05-25T02:01:48.445Z,7.12
2023-05-25T02:02:47.623Z,7.10
2023-05-25T02:03:47.588Z,7.06
2023-05-25T02:04:47.711Z,7.05
2023-05-25T02:05:47.604Z,7.03
2023-05-25T02:06:47.558Z,6.98
2023-05-25T02:07:47.567Z,6.95
2023-05-25T02:08:47.526Z,6.94
2023-05-25T02:09:47.521Z,6.97
2023-05-25T02:10:47.517Z,6.94
2023-05-25T02:11:47.507Z,6.92
2023-05-25T02:12:47.503Z,6.91
2023-05-25T02:13:47.487Z,6.85
2023-05-25T02:14:47.476Z,6.81
2023-05-25T02:15:47.624Z,6.80
2023-05-25T02:16:47.445Z,6.79
2023-05-25T02:17:47.468Z,6.79
2023-05-25T02:18:47.420Z,6.79
2023-05-25T02:19:47.453Z,6.79
2023-05-25T02:20:47.425Z,6.76
2023-05-25T02:21:47.389Z,6.76
2023-05-25T02:22:47.380Z,6.77
2023-05-25T02:23:47.368Z,6.74
2023-05-25T02:24:47.360Z,6.71
2023-05-25T02:25:47.350Z,6.74
2023-05-25T02:26:47.351Z,6.74
2023-05-25T02:27:47.327Z,6.74
2023-05-25T02:28:47.310Z,6.79
2023-05-25T02:29:47.316Z,6.84
2023-05-25T02:30:47.385Z,6.81
2023-05-25T02:31:47.352Z,6.92
2023-05-25T02:32:47.327Z,6.94
2023-05-25T02:33:47.279Z,6.91
2023-05-25T02:34:47.269Z,6.85
2023-05-25T02:35:47.243Z,6.84
2023-05-25T02:36:47.248Z,6.85
2023-05-25T02:37:48.448Z,6.85
2023-05-25T02:38:47.233Z,6.85
2023-05-25T02:39:47.201Z,6.79
2023-05-25T02:40:47.180Z,6.76
2023-05-25T02:41:47.182Z,6.70
2023-05-25T02:42:47.161Z,6.67
2023-05-25T02:43:47.168Z,6.66
2023-05-25T02:44:47.142Z,6.62
2023-05-25T02:45:47.136Z,6.61
2023-05-25T02:46:47.130Z,6.58
2023-05-25T02:47:47.190Z,6.55
2023-05-25T02:48:47.113Z,6.49
2023-05-25T02:49:47.199Z,6.49
2023-05-25T02:50:47.096Z,6.52
2023-05-25T02:51:47.074Z,6.51
2023-05-25T02:52:47.060Z,6.49
2023-05-25T02:53:47.061Z,6.51
2023-05-25T02:54:47.024Z,6.52
2023-05-25T02:55:47.038Z,6.52
2023-05-25T02:56:47.015Z,6.48
2023-05-25T02:57:47.009Z,6.44
2023-05-25T02:58:46.996Z,6.38
2023-05-25T02:59:46.987Z,6.36
2023-05-25T03:00:47.071Z,6.33
2023-05-25T03:01:46.956Z,6.33
2023-05-25T03:02:47.016Z,6.30
2023-05-25T03:03:46.983Z,6.28
2023-05-25T03:04:46.919Z,6.27
2023-05-25T03:05:46.918Z,6.27
2023-05-25T03:06:46.910Z,6.28
2023-05-25T03:07:46.950Z,6.25
2023-05-25T03:08:46.878Z,6.27
2023-05-25T03:09:46.874Z,6.27
2023-05-25T03:10:46.861Z,6.31
2023-05-25T03:11:46.864Z,6.33
2023-05-25T03:12:46.830Z,6.30
2023-05-25T03:13:46.834Z,6.27
2023-05-25T03:14:46.801Z,6.19
2023-05-25T03:15:46.808Z,6.19
2023-05-25T03:16:46.877Z,6.17
2023-05-25T03:17:46.844Z,6.15
2023-05-25T03:18:46.776Z,6.14
2023-05-25T03:19:46.769Z,6.12
2023-05-25T03:20:46.770Z,6.09
2023-05-25T03:21:46.756Z,6.11
2023-05-25T03:22:46.734Z,6.06
2023-05-25T03:23:46.716Z,6.08
2023-05-25T03:24:46.701Z,6.09
2023-05-25T03:25:46.841Z,6.08
2023-05-25T03:26:46.759Z,6.08
2023-05-25T03:27:46.662Z,6.08
2023-05-25T03:28:46.672Z,6.12
2023-05-25T03:29:46.746Z,6.15
2023-05-25T03:30:46.664Z,6.21
2023-05-25T03:31:46.774Z,6.25
2023-05-25T03:32:46.651Z,6.21
2023-05-25T03:33:46.687Z,6.21
2023-05-25T03:34:46.616Z,6.25
2023-05-25T03:35:46.760Z,6.25
2023-05-25T03:36:46.573Z,6.21
2023-05-25T03:37:46.592Z,6.22
2023-05-25T03:38:46.552Z,6.22
2023-05-25T03:39:46.584Z,6.19
2023-05-25T03:40:46.539Z,6.18
2023-05-25T03:41:46.538Z,6.14
2023-05-25T03:42:46.508Z,6.12
2023-05-25T03:43:46.510Z,6.09
2023-05-25T03:44:46.512Z,6.08
2023-05-25T03:45:46.585Z,6.08
2023-05-25T03:46:46.564Z,6.04
2023-05-25T03:47:46.490Z,6.04
2023-05-25T03:48:46.488Z,6.00
2023-05-25T03:49:46.438Z,6.00
2023-05-25T03:50:46.424Z,6.00
2023-05-25T03:51:46.430Z,5.99
2023-05-25T03:52:46.411Z,5.96
2023-05-25T03:53:46.426Z,5.97
2023-05-25T03:54:46.375Z,5.99
2023-05-25T03:55:46.523Z,6.09
2023-05-25T03:56:46.407Z,6.19
2023-05-25T03:57:46.418Z,6.25
2023-05-25T03:58:46.372Z,6.21
2023-05-25T03:59:46.328Z,6.27
2023-05-25T04:00:46.310Z,6.27
2023-05-25T04:01:46.308Z,6.33
2023-05-25T04:02:46.383Z,6.36
2023-05-25T04:03:46.448Z,6.30
2023-05-25T04:04:46.359Z,6.31
2023-05-25T04:05:46.492Z,6.38
2023-05-25T04:06:46.242Z,6.43
2023-05-25T04:07:46.267Z,6.46
2023-05-25T04:08:46.226Z,6.43
2023-05-25T04:09:46.235Z,6.48
2023-05-25T04:10:46.231Z,6.49
2023-05-25T04:11:46.208Z,6.58
2023-05-25T04:12:46.201Z,6.56
2023-05-25T04:13:46.182Z,6.54
2023-05-25T04:14:46.168Z,6.54
2023-05-25T04:15:46.397Z,6.52
2023-05-25T04:16:46.350Z,6.54
2023-05-25T04:17:46.160Z,6.55
2023-05-25T04:18:46.112Z,6.56
2023-05-25T04:19:46.110Z,6.56
2023-05-25T04:20:46.096Z,6.58
2023-05-25T04:21:46.110Z,6.61
2023-05-25T04:22:46.098Z,6.64
2023-05-25T04:23:46.091Z,6.71
2023-05-25T04:24:46.073Z,6.81
2023-05-25T04:25:46.266Z,6.99
2023-05-25T04:26:46.052Z,7.05
2023-05-25T04:27:46.023Z,7.10
2023-05-25T04:28:45.999Z,7.12
2023-05-25T04:29:46.022Z,7.09
2023-05-25T04:30:45.992Z,7.07
2023-05-25T04:31:46.105Z,7.09
2023-05-25T04:32:46.019Z,7.13
2023-05-25T04:33:46.002Z,7.12
2023-05-25T04:34:45.971Z,7.12
2023-05-25T04:35:46.216Z,7.13
2023-05-25T04:36:45.917Z,7.12
2023-05-25T04:37:45.909Z,7.12
2023-05-25T04:38:45.910Z,7.12
2023-05-25T04:39:45.986Z,7.10
2023-05-25T04:40:45.906Z,7.09
2023-05-25T04:41:45.936Z,7.09
2023-05-25T04:42:45.867Z,7.07
2023-05-25T04:43:56.831Z,7.07
2023-05-25T04:44:46.865Z,7.06
2023-05-25T04:45:46.318Z,7.02
2023-05-25T04:46:45.818Z,6.99
2023-05-25T04:47:45.916Z,6.98
2023-05-25T04:48:45.780Z,6.99
2023-05-25T04:49:45.793Z,7.02
2023-05-25T04:50:45.768Z,7.02
2023-05-25T04:51:45.755Z,7.06
2023-05-25T04:52:45.785Z,7.09
2023-05-25T04:53:46.040Z,7.13
2023-05-25T04:54:45.719Z,7.20
2023-05-25T04:55:45.936Z,7.27
2023-05-25T04:56:45.707Z,7.30
2023-05-25T04:57:45.695Z,7.30
2023-05-25T04:58:45.691Z,7.28
2023-05-25T04:59:45.676Z,7.27
2023-05-25T05:00:45.958Z,7.32
2023-05-25T05:01:45.708Z,7.42
2023-05-25T05:02:45.705Z,7.49
2023-05-25T05:03:45.668Z,7.52
2023-05-25T05:04:45.609Z,7.53
2023-05-25T05:05:45.821Z,7.53
2023-05-25T05:06:45.589Z,7.53
2023-05-25T05:07:45.599Z,7.50
2023-05-25T05:08:45.593Z,7.49
2023-05-25T05:09:45.562Z,7.50
2023-05-25T05:10:45.784Z,7.52
2023-05-25T05:11:45.545Z,7.53
2023-05-25T05:12:45.559Z,7.53
2023-05-25T05:13:45.544Z,7.55
2023-05-25T05:14:45.517Z,7.57
2023-05-25T05:15:45.704Z,7.58
2023-05-25T05:16:45.494Z,7.69
2023-05-25T05:17:45.539Z,7.71
2023-05-25T05:18:45.454Z,7.72
2023-05-25T05:19:45.469Z,7.75
2023-05-25T05:20:45.528Z,7.79
2023-05-25T05:21:45.449Z,7.87
2023-05-25T05:22:45.421Z,7.93
2023-05-25T05:23:45.419Z,8.04
2023-05-25T05:24:45.385Z,8.15
2023-05-25T05:25:45.623Z,8.23
2023-05-25T05:26:57.439Z,8.30
2023-05-25T05:27:46.365Z,8.37
2023-05-25T05:28:45.345Z,8.43
2023-05-25T05:29:45.343Z,8.47
2023-05-25T05:30:45.326Z,8.56
2023-05-25T05:31:45.387Z,8.62
2023-05-25T05:32:46.704Z,8.68
2023-05-25T05:33:45.355Z,8.74
2023-05-25T05:34:45.283Z,8.83
2023-05-25T05:35:45.440Z,8.89
2023-05-25T05:36:55.822Z,8.96
2023-05-25T05:37:46.263Z,9.01
2023-05-25T05:38:45.247Z,9.05
2023-05-25T05:39:45.236Z,9.10
2023-05-25T05:40:45.230Z,9.11
2023-05-25T05:41:45.204Z,9.15
2023-05-25T05:42:45.192Z,9.15
2023-05-25T05:43:45.183Z,9.21
2023-05-25T05:44:45.184Z,9.28
2023-05-25T05:45:45.513Z,9.33
2023-05-25T05:46:45.221Z,9.39
2023-05-25T05:47:45.197Z,9.48
2023-05-25T05:48:45.151Z,9.56
2023-05-25T05:49:45.148Z,9.60
2023-05-25T05:50:45.139Z,9.64
2023-05-25T05:51:45.102Z,9.71
2023-05-25T05:52:45.083Z,9.74
2023-05-25T05:53:45.096Z,9.78
2023-05-25T05:54:45.077Z,9.83
2023-05-25T05:55:46.038Z,9.84
2023-05-25T05:56:45.045Z,9.87
2023-05-25T05:57:45.032Z,9.93
2023-05-25T05:58:45.022Z,10.04
2023-05-25T05:59:45.028Z,10.12
2023-05-25T06:00:44.996Z,10.18
2023-05-25T06:01:45.026Z,10.27
2023-05-25T06:02:45.067Z,10.38
2023-05-25T06:03:44.977Z,10.48
2023-05-25T06:04:44.964Z,10.61
2023-05-25T06:05:45.255Z,10.67
2023-05-25T06:06:44.930Z,10.63
2023-05-25T06:07:44.921Z,10.61
2023-05-25T06:08:45.026Z,10.60
2023-05-25T06:09:44.901Z,10.60
2023-05-25T06:10:45.055Z,10.64
2023-05-25T06:11:44.878Z,10.64
2023-05-25T06:12:44.864Z,10.64
2023-05-25T06:13:46.480Z,10.73
2023-05-25T06:14:44.843Z,10.76
2023-05-25T06:15:45.099Z,10.81
2023-05-25T06:16:44.882Z,10.73
2023-05-25T06:17:44.842Z,10.78
2023-05-25T06:18:44.813Z,10.84
2023-05-25T06:19:44.789Z,10.96
2023-05-25T06:20:44.870Z,11.06
2023-05-25T06:21:44.760Z,11.19
2023-05-25T06:22:44.770Z,11.35
2023-05-25T06:23:44.741Z,11.52
2023-05-25T06:24:44.753Z,11.67
2023-05-25T06:25:44.966Z,11.75
2023-05-25T06:26:44.709Z,11.80
2023-05-25T06:27:44.708Z,11.96
2023-05-25T06:28:44.704Z,12.14
2023-05-25T06:29:44.665Z,12.23
2023-05-25T06:30:44.659Z,12.37
2023-05-25T06:31:44.770Z,12.52
2023-05-25T06:32:44.714Z,12.70
2023-05-25T06:33:44.626Z,12.89
2023-05-25T06:34:44.641Z,13.01
2023-05-25T06:35:44.801Z,13.08
2023-05-25T06:36:44.602Z,13.25
2023-05-25T06:37:44.609Z,13.46
2023-05-25T06:38:44.583Z,13.52
2023-05-25T06:39:44.559Z,13.57
2023-05-25T06:40:44.590Z,13.52
2023-05-25T06:41:44.573Z,13.55
2023-05-25T06:42:44.525Z,13.52
2023-05-25T06:43:44.552Z,13.48
2023-05-25T06:44:44.518Z,13.63
2023-05-25T06:45:44.752Z,13.78
2023-05-25T06:46:44.534Z,13.91
2023-05-25T06:47:44.510Z,14.02
2023-05-25T06:48:44.475Z,14.10
2023-05-25T06:49:44.470Z,14.20
2023-05-25T06:50:44.463Z,14.28
2023-05-25T06:51:44.428Z,14.27
2023-05-25T06:52:44.438Z,14.27
2023-05-25T06:53:44.532Z,14.14
2023-05-25T06:54:44.408Z,14.00
2023-05-25T06:55:44.577Z,13.84
2023-05-25T06:56:44.386Z,13.87
2023-05-25T06:57:44.383Z,14.12
2023-05-25T06:58:44.352Z,14.35
2023-05-25T06:59:44.368Z,14.46
2023-05-25T07:00:46.028Z,14.68
2023-05-25T07:01:44.347Z,14.86
2023-05-25T07:02:44.368Z,14.96
2023-05-25T07:03:44.485Z,15.01
2023-05-25T07:04:44.388Z,15.13
2023-05-25T07:05:44.505Z,15.07
2023-05-25T07:06:44.267Z,14.83
2023-05-25T07:07:44.261Z,14.77
2023-05-25T07:08:44.282Z,14.91
2023-05-25T07:09:44.240Z,14.94
2023-05-25T07:10:44.229Z,14.75
2023-05-25T07:11:44.207Z,14.73
2023-05-25T07:12:44.226Z,14.64
2023-05-25T07:13:44.216Z,14.70
2023-05-25T07:14:44.182Z,14.89
2023-05-25T07:15:44.390Z,15.10
2023-05-25T07:16:44.255Z,15.28
2023-05-25T07:17:44.208Z,15.44
2023-05-25T07:18:44.147Z,15.38
2023-05-25T07:19:44.153Z,15.35
2023-05-25T07:20:44.422Z,15.47
2023-05-25T07:21:44.116Z,15.35
2023-05-25T07:22:44.149Z,15.34
2023-05-25T07:23:44.102Z,15.17
2023-05-25T07:24:44.080Z,15.21
2023-05-25T07:25:44.226Z,15.21
2023-05-25T07:26:44.051Z,15.36
2023-05-25T07:27:44.043Z,15.49
2023-05-25T07:28:44.031Z,15.51
2023-05-25T07:29:44.016Z,15.57
2023-05-25T07:30:44.006Z,15.54
2023-05-25T07:31:44.319Z,15.69
2023-05-25T07:32:44.423Z,15.74
2023-05-25T07:33:44.019Z,15.67
2023-05-25T07:34:44.035Z,15.67
2023-05-25T07:35:44.196Z,15.69
2023-05-25T07:36:43.957Z,15.76
2023-05-25T07:37:43.938Z,15.94
2023-05-25T07:38:43.923Z,16.08
2023-05-25T07:39:43.904Z,16.21
2023-05-25T07:40:43.901Z,16.42
2023-05-25T07:41:43.912Z,16.58
2023-05-25T07:42:43.879Z,16.66
2023-05-25T07:43:43.874Z,16.86
2023-05-25T07:44:43.860Z,17.08
2023-05-25T07:45:44.084Z,17.28
2023-05-25T07:46:43.879Z,17.38
2023-05-25T07:47:43.866Z,17.23
2023-05-25T07:48:43.813Z,17.18
2023-05-25T07:49:43.824Z,16.79
2023-05-25T07:50:43.820Z,16.56
2023-05-25T07:51:43.786Z,16.63
2023-05-25T07:52:43.835Z,16.70
2023-05-25T07:53:43.778Z,16.94
2023-05-25T07:54:43.756Z,17.12
2023-05-25T07:55:44.081Z,17.15
2023-05-25T07:56:43.740Z,16.97
2023-05-25T07:57:43.723Z,16.86
2023-05-25T07:58:43.717Z,16.68
2023-05-25T07:59:43.747Z,16.43
2023-05-25T08:00:43.710Z,16.33
2023-05-25T08:01:43.743Z,16.35
2023-05-25T08:02:43.817Z,16.38
2023-05-25T08:03:49.752Z,16.43
2023-05-25T08:04:44.781Z,16.61
2023-05-25T08:05:43.920Z,16.79
2023-05-25T08:06:43.624Z,16.93
2023-05-25T08:07:43.618Z,16.93
2023-05-25T08:08:43.640Z,16.98
2023-05-25T08:09:43.622Z,17.25
2023-05-25T08:10:43.582Z,17.14
2023-05-25T08:11:43.580Z,16.85
2023-05-25T08:12:49.513Z,17.04
2023-05-25T08:13:44.700Z,17.06
2023-05-25T08:14:43.598Z,17.01
2023-05-25T08:15:43.739Z,17.00
2023-05-25T08:16:43.552Z,17.04
2023-05-25T08:17:43.549Z,17.12
2023-05-25T08:18:43.502Z,17.14
2023-05-25T08:19:43.492Z,17.15
2023-05-25T08:20:43.623Z,17.16
2023-05-25T08:21:43.458Z,17.16
2023-05-25T08:22:43.461Z,17.19
2023-05-25T08:23:43.450Z,17.16
2023-05-25T08:24:43.449Z,17.06
2023-05-25T08:25:43.779Z,17.15
2023-05-25T08:26:54.422Z,17.36
2023-05-25T08:27:44.415Z,17.62
2023-05-25T08:28:43.379Z,17.63
2023-05-25T08:29:43.428Z,17.52
2023-05-25T08:30:43.405Z,17.49
2023-05-25T08:31:43.376Z,17.68
2023-05-25T08:32:43.422Z,17.97
2023-05-25T08:33:43.413Z,18.10
2023-05-25T08:34:43.330Z,18.14
2023-05-25T08:35:43.553Z,18.20
2023-05-25T08:36:43.296Z,18.11
2023-05-25T08:37:43.324Z,17.96
2023-05-25T08:38:43.346Z,18.07
2023-05-25T08:39:43.305Z,18.02
2023-05-25T08:40:43.287Z,17.97
2023-05-25T08:41:43.315Z,17.89
2023-05-25T08:42:43.230Z,17.71
2023-05-25T08:43:43.227Z,17.56
2023-05-25T08:44:43.218Z,17.55
2023-05-25T08:45:46.838Z,17.55
2023-05-25T08:46:43.196Z,17.71
2023-05-25T08:47:43.210Z,18.02
2023-05-25T08:48:43.313Z,18.29
2023-05-25T08:49:43.302Z,18.37
2023-05-25T08:50:43.253Z,18.26
2023-05-25T08:51:43.148Z,18.07
2023-05-25T08:52:43.119Z,17.96
2023-05-25T08:53:43.114Z,18.18
2023-05-25T08:54:43.099Z,18.33
2023-05-25T08:55:43.426Z,18.17
2023-05-25T08:56:43.124Z,18.07
2023-05-25T08:57:43.073Z,18.03
2023-05-25T08:58:43.067Z,18.08
2023-05-25T08:59:43.091Z,18.20
2023-05-25T09:00:43.326Z,18.20
2023-05-25T09:01:43.101Z,18.12
2023-05-25T09:02:43.095Z,17.96
2023-05-25T09:03:43.144Z,17.93
2023-05-25T09:04:43.012Z,17.97
2023-05-25T09:05:43.240Z,18.07
2023-05-25T09:06:44.048Z,17.95
2023-05-25T09:07:42.974Z,17.92
2023-05-25T09:08:42.945Z,18.02
2023-05-25T09:09:42.976Z,18.08
2023-05-25T09:10:42.948Z,18.10
2023-05-25T09:11:44.966Z,18.12
2023-05-25T09:12:42.908Z,18.00
2023-05-25T09:13:42.922Z,17.89
2023-05-25T09:14:42.909Z,18.17
2023-05-25T09:15:43.095Z,18.18
2023-05-25T09:16:42.928Z,18.48
2023-05-25T09:17:42.966Z,18.81
2023-05-25T09:18:42.865Z,19.08
2023-05-25T09:19:42.845Z,19.19
2023-05-25T09:20:45.214Z,19.10
2023-05-25T09:21:42.823Z,18.88
2023-05-25T09:22:42.820Z,19.02
2023-05-25T09:23:42.821Z,19.21
2023-05-25T09:24:42.789Z,19.41
2023-05-25T09:25:42.868Z,19.66
2023-05-25T09:26:42.786Z,19.62
2023-05-25T09:27:42.774Z,19.56
2023-05-25T09:28:42.765Z,19.58
2023-05-25T09:29:42.750Z,19.44
2023-05-25T09:30:42.850Z,19.07
2023-05-25T09:31:42.829Z,18.76
2023-05-25T09:32:42.778Z,18.60
2023-05-25T09:33:42.721Z,18.44
2023-05-25T09:34:42.706Z,18.41
2023-05-25T09:35:42.687Z,18.23
2023-05-25T09:36:42.736Z,18.02
2023-05-25T09:37:42.829Z,17.87
2023-05-25T09:38:43.036Z,17.75
2023-05-25T09:39:42.726Z,17.64
2023-05-25T09:40:42.891Z,17.68
2023-05-25T09:41:42.628Z,17.72
2023-05-25T09:42:42.620Z,17.75
2023-05-25T09:43:48.927Z,17.87
2023-05-25T09:44:43.588Z,17.97
2023-05-25T09:45:42.609Z,18.02
2023-05-25T09:46:42.704Z,17.99
2023-05-25T09:47:42.661Z,18.00
2023-05-25T09:48:42.565Z,18.07
2023-05-25T09:49:42.547Z,18.11
2023-05-25T09:50:42.662Z,18.17
2023-05-25T09:51:42.526Z,18.35
2023-05-25T09:52:42.532Z,18.36
2023-05-25T09:53:42.496Z,18.29
2023-05-25T09:54:42.486Z,18.30
2023-05-25T09:55:53.293Z,18.30
2023-05-25T09:56:43.474Z,18.47
2023-05-25T09:57:42.444Z,18.75
2023-05-25T09:58:42.446Z,18.99
2023-05-25T09:59:42.436Z,19.29
2023-05-25T10:00:42.531Z,19.56
2023-05-25T10:01:44.013Z,19.50
2023-05-25T10:02:42.440Z,19.10
2023-05-25T10:03:43.792Z,18.92
2023-05-25T10:04:43.435Z,18.67
2023-05-25T10:05:42.403Z,18.54
2023-05-25T10:06:42.351Z,18.32
2023-05-25T10:07:42.350Z,18.14
2023-05-25T10:08:42.382Z,18.17
2023-05-25T10:09:42.404Z,18.11
2023-05-25T10:10:42.566Z,18.17
2023-05-25T10:11:42.291Z,18.48
2023-05-25T10:12:42.293Z,18.67
2023-05-25T10:13:42.283Z,18.94
2023-05-25T10:14:42.295Z,19.22
2023-05-25T10:15:42.320Z,19.36
2023-05-25T10:16:42.261Z,19.56
2023-05-25T10:17:42.335Z,19.55
2023-05-25T10:18:42.231Z,19.63
2023-05-25T10:19:42.226Z,19.71
2023-05-25T10:20:42.259Z,19.81
2023-05-25T10:21:42.191Z,19.92
2023-05-25T10:22:42.192Z,20.20
2023-05-25T10:23:42.287Z,20.16
2023-05-25T10:24:42.178Z,20.01
2023-05-25T10:25:42.158Z,19.66
2023-05-25T10:26:42.152Z,19.43
2023-05-25T10:27:42.135Z,19.08
2023-05-25T10:28:42.149Z,18.87
2023-05-25T10:29:42.121Z,18.92
2023-05-25T10:30:42.114Z,18.84
2023-05-25T10:31:42.163Z,18.84
2023-05-25T10:32:42.124Z,19.08
2023-05-25T10:33:42.076Z,19.43
2023-05-25T10:34:42.067Z,19.66
2023-05-25T10:35:56.273Z,20.10
2023-05-25T10:36:43.037Z,20.21
2023-05-25T10:37:42.021Z,20.08
2023-05-25T10:38:42.100Z,19.92
2023-05-25T10:39:42.002Z,19.92
2023-05-25T10:40:42.059Z,19.80
2023-05-25T10:41:41.989Z,19.65
2023-05-25T10:42:41.982Z,19.77
2023-05-25T10:43:41.989Z,19.95
2023-05-25T10:44:41.974Z,20.11
2023-05-25T10:45:41.953Z,19.74
2023-05-25T10:46:41.983Z,19.39
2023-05-25T10:47:41.997Z,19.48
2023-05-25T10:48:41.927Z,19.65
2023-05-25T10:49:41.908Z,19.86
2023-05-25T10:50:41.906Z,19.92
2023-05-25T10:51:41.891Z,20.13
2023-05-25T10:52:41.907Z,20.31
2023-05-25T10:53:41.868Z,20.42
2023-05-25T10:54:41.852Z,20.43
2023-05-25T10:55:41.894Z,20.54
2023-05-25T10:56:42.260Z,20.69
2023-05-25T10:57:41.814Z,20.72
2023-05-25T10:58:41.822Z,20.77
2023-05-25T10:59:41.830Z,20.64
2023-05-25T11:00:41.939Z,20.38
2023-05-25T11:01:41.881Z,20.06
2023-05-25T11:02:41.805Z,20.02
2023-05-25T11:03:41.808Z,19.92
2023-05-25T11:04:41.883Z,19.77
2023-05-25T11:05:41.746Z,19.78
2023-05-25T11:06:41.761Z,19.66
2023-05-25T11:07:41.735Z,19.66
2023-05-25T11:08:41.755Z,19.65
2023-05-25T11:09:41.696Z,19.87
2023-05-25T11:10:41.781Z,19.92
2023-05-25T11:11:41.681Z,19.94
2023-05-25T11:12:41.674Z,20.11
2023-05-25T11:13:41.695Z,20.13
2023-05-25T11:14:41.652Z,20.35
2023-05-25T11:15:41.672Z,20.67
2023-05-25T11:16:41.700Z,20.84
2023-05-25T11:17:41.647Z,20.89
2023-05-25T11:18:41.629Z,20.88
2023-05-25T11:19:41.635Z,20.94
2023-05-25T11:20:41.777Z,20.61
2023-05-25T11:21:41.581Z,20.23
2023-05-25T11:22:41.569Z,20.02
2023-05-25T11:23:41.565Z,19.76
2023-05-25T11:24:41.554Z,19.56
2023-05-25T11:25:41.599Z,19.40
2023-05-25T11:26:41.552Z,19.29
2023-05-25T11:27:41.514Z,19.51
2023-05-25T11:28:41.518Z,19.80
2023-05-25T11:29:41.512Z,20.11
2023-05-25T11:30:41.521Z,20.33
2023-05-25T11:31:43.727Z,20.61
2023-05-25T11:32:41.499Z,20.80
2023-05-25T11:33:41.452Z,20.87
2023-05-25T11:34:41.581Z,21.12
2023-05-25T11:35:41.482Z,21.34
2023-05-25T11:36:41.452Z,21.16
2023-05-25T11:37:41.473Z,20.69
2023-05-25T11:38:45.247Z,20.66
2023-05-25T11:39:42.397Z,20.91
2023-05-25T11:40:41.418Z,20.85
2023-05-25T11:41:41.381Z,20.67
2023-05-25T11:42:41.373Z,20.29
2023-05-25T11:43:41.414Z,19.92
2023-05-25T11:44:41.417Z,19.69
2023-05-25T11:45:41.328Z,19.98
2023-05-25T11:46:41.396Z,20.31
2023-05-25T11:47:41.360Z,20.54
2023-05-25T11:48:41.308Z,20.29
2023-05-25T11:49:41.293Z,19.99
2023-05-25T11:50:41.281Z,19.68
2023-05-25T11:51:41.266Z,19.44
2023-05-25T11:52:41.269Z,19.29
2023-05-25T11:53:41.270Z,19.36
2023-05-25T11:54:41.297Z,19.61
2023-05-25T11:55:41.268Z,19.94
2023-05-25T11:56:41.250Z,20.26
2023-05-25T11:57:41.234Z,20.48
2023-05-25T11:58:41.225Z,20.64
2023-05-25T11:59:41.182Z,20.76
2023-05-25T12:00:41.220Z,20.64
2023-05-25T12:01:41.168Z,20.80
2023-05-25T12:02:41.356Z,20.38
2023-05-25T12:03:41.215Z,19.84
2023-05-25T12:04:41.295Z,19.77
2023-05-25T12:05:41.351Z,19.77
2023-05-25T12:06:41.213Z,19.63
2023-05-25T12:07:41.130Z,19.68
2023-05-25T12:08:41.138Z,19.68
2023-05-25T12:09:41.085Z,19.66
2023-05-25T12:10:41.070Z,19.54
2023-05-25T12:11:41.074Z,19.48
2023-05-25T12:12:41.051Z,19.58
2023-05-25T12:13:41.053Z,19.63
2023-05-25T12:14:41.032Z,19.68
2023-05-25T12:15:41.063Z,19.68
2023-05-25T12:16:41.126Z,19.51
2023-05-25T12:17:41.017Z,19.50
2023-05-25T12:18:40.975Z,19.73
2023-05-25T12:19:40.974Z,19.88
2023-05-25T12:20:41.025Z,20.05
2023-05-25T12:21:41.021Z,20.26
2023-05-25T12:22:40.965Z,20.35
2023-05-25T12:23:40.943Z,20.24
2023-05-25T12:24:40.933Z,19.99
2023-05-25T12:25:50.310Z,19.76
2023-05-25T12:26:41.905Z,19.56
2023-05-25T12:27:40.946Z,19.25
2023-05-25T12:28:40.892Z,19.02
2023-05-25T12:29:40.880Z,18.87
2023-05-25T12:30:40.900Z,18.81
2023-05-25T12:31:40.872Z,18.94
2023-05-25T12:32:40.918Z,18.99
2023-05-25T12:33:40.825Z,19.26
2023-05-25T12:34:40.844Z,19.62
2023-05-25T12:35:40.877Z,19.76
2023-05-25T12:36:40.810Z,19.83
2023-05-25T12:37:40.784Z,19.91
2023-05-25T12:38:40.777Z,19.98
2023-05-25T12:39:40.771Z,20.06
2023-05-25T12:40:40.819Z,20.21
2023-05-25T12:41:40.742Z,20.13
2023-05-25T12:42:40.744Z,20.01
2023-05-25T12:43:40.720Z,19.99
2023-05-25T12:44:40.741Z,20.11
2023-05-25T12:45:40.705Z,20.02
2023-05-25T12:46:40.828Z,20.01
2023-05-25T12:47:40.710Z,20.11
2023-05-25T12:48:40.680Z,20.26
2023-05-25T12:49:40.670Z,20.10
2023-05-25T12:50:41.043Z,20.18
2023-05-25T12:51:40.644Z,20.08
2023-05-25T12:52:40.667Z,19.88
2023-05-25T12:53:40.637Z,19.84
2023-05-25T12:54:40.615Z,19.91
2023-05-25T12:55:40.599Z,19.73
2023-05-25T12:56:40.594Z,19.76
2023-05-25T12:57:40.633Z,19.80
2023-05-25T12:58:40.594Z,19.80
2023-05-25T12:59:40.562Z,19.76
2023-05-25T13:00:40.619Z,19.78
2023-05-25T13:01:40.570Z,20.02
2023-05-25T13:02:40.547Z,20.01
2023-05-25T13:03:40.544Z,19.94
2023-05-25T13:04:40.610Z,19.78